createdAt,value
2018-06-10T00:02:17.573Z,74.70
2018-06-10T00:07:12.586Z,74.30
2018-06-10T00:09:40.125Z,79.60
2018-06-10T00:12:07.701Z,81.40
2018-06-10T00:14:35.260Z,85.40
2018-06-10T00:17:03.116Z,86.00
2018-06-10T00:19:30.653Z,88.30
2018-06-10T00:21:58.237Z,89.10
2018-06-10T00:24:26.350Z,88.80
2018-06-10T00:26:53.926Z,87.90
2018-06-10T00:29:22.191Z,88.80
2018-06-10T00:31:50.209Z,90.60
2018-06-10T00:34:18.442Z,90.80
2018-06-10T00:36:46.376Z,91.10
2018-06-10T00:39:13.919Z,91.50
2018-06-10T00:41:41.530Z,90.90
2018-06-10T00:44:09.073Z,91.30
2018-06-10T00:46:36.612Z,91.20
2018-06-10T00:49:04.274Z,91.30
2018-06-10T00:51:31.814Z,91.50
2018-06-10T00:53:59.332Z,91.60
2018-06-10T00:56:38.217Z,91.70
2018-06-10T01:01:33.212Z,92.30
2018-06-10T01:04:00.777Z,92.40
2018-06-10T01:06:28.320Z,92.50
2018-06-10T01:08:55.843Z,92.80
2018-06-10T01:11:23.358Z,92.70
2018-06-10T01:13:50.882Z,92.80
2018-06-10T01:16:18.394Z,92.90
2018-06-10T01:18:45.954Z,93.00
2018-06-10T01:21:13.484Z,92.90
2018-06-10T01:23:40.997Z,93.00
2018-06-10T01:26:08.509Z,93.00
2018-06-10T01:28:36.049Z,92.90
2018-06-10T01:31:03.553Z,93.50
2018-06-10T01:33:31.062Z,93.50
2018-06-10T01:38:32.815Z,94.40
2018-06-10T01:41:00.328Z,94.50
2018-06-10T01:43:27.857Z,94.30
2018-06-10T01:45:55.410Z,94.60
2018-06-10T01:48:22.926Z,94.80
2018-06-10T01:50:50.428Z,95.20
2018-06-10T01:53:17.957Z,95.30
2018-06-10T01:55:45.447Z,95.30
2018-06-10T01:58:12.981Z,95.30
2018-06-10T02:00:40.498Z,95.20
2018-06-10T02:03:08.031Z,95.50
2018-06-10T02:05:35.555Z,95.70
2018-06-10T02:08:03.111Z,96.20
2018-06-10T02:10:30.604Z,96.30
2018-06-10T02:12:58.170Z,95.90
2018-06-10T02:15:25.729Z,96.40
2018-06-10T02:20:20.729Z,96.40
2018-06-10T02:22:48.225Z,96.30
2018-06-10T02:25:15.918Z,96.00
2018-06-10T02:27:43.481Z,95.60
2018-06-10T02:30:10.999Z,95.50
2018-06-10T02:32:38.485Z,95.40
2018-06-10T02:35:06.020Z,95.00
2018-06-10T02:37:33.593Z,95.10
2018-06-10T02:40:01.121Z,95.20
2018-06-10T02:42:28.717Z,95.50
2018-06-10T02:44:56.225Z,96.00
2018-06-10T02:47:30.494Z,96.20
2018-06-10T02:49:58.009Z,96.40
2018-06-10T02:52:25.501Z,95.90
2018-06-10T02:54:53.019Z,95.90
2018-06-10T02:57:20.521Z,95.70
2018-06-10T02:59:48.075Z,95.60
2018-06-10T03:02:15.594Z,95.60
2018-06-10T03:04:43.134Z,95.80
2018-06-10T03:07:10.670Z,95.80
2018-06-10T03:09:38.215Z,95.50
2018-06-10T03:12:05.728Z,95.30
2018-06-10T03:14:33.245Z,95.30
2018-06-10T03:17:01.670Z,95.10
2018-06-10T03:21:56.665Z,95.20
2018-06-10T03:24:24.188Z,95.00
2018-06-10T03:26:51.766Z,95.20
2018-06-10T03:29:19.466Z,95.50
2018-06-10T03:31:47.002Z,95.30
2018-06-10T03:34:14.547Z,95.40
2018-06-10T03:36:42.068Z,95.40
2018-06-10T03:39:09.562Z,95.30
2018-06-10T03:41:37.126Z,95.50
2018-06-10T03:44:04.677Z,95.60
2018-06-10T03:46:32.237Z,95.30
2018-06-10T03:48:59.766Z,95.20
2018-06-10T03:51:27.290Z,95.10
2018-06-10T03:53:55.080Z,95.30
2018-06-10T03:56:22.608Z,95.40
2018-06-10T03:58:50.113Z,95.40
2018-06-10T04:01:17.652Z,95.10
2018-06-10T04:03:45.162Z,95.10
2018-06-10T04:06:12.673Z,95.10
2018-06-10T04:08:40.196Z,95.20
2018-06-10T04:11:07.700Z,95.30
2018-06-10T04:13:35.251Z,95.10
2018-06-10T04:16:02.777Z,94.90
2018-06-10T04:20:57.777Z,95.20
2018-06-10T04:23:25.461Z,95.00
2018-06-10T04:25:52.966Z,94.70
2018-06-10T04:28:20.480Z,94.40
2018-06-10T04:30:48.018Z,94.60
2018-06-10T04:33:15.551Z,94.70
2018-06-10T04:35:43.072Z,94.70
2018-06-10T04:38:10.585Z,94.40
2018-06-10T04:40:38.137Z,94.50
2018-06-10T04:43:06.284Z,94.30
2018-06-10T04:45:33.774Z,94.50
2018-06-10T04:48:01.308Z,94.40
2018-06-10T04:50:28.888Z,94.30
2018-06-10T04:52:56.428Z,94.20
2018-06-10T04:55:23.953Z,94.30
2018-06-10T04:57:51.560Z,94.30
2018-06-10T05:00:19.095Z,94.00
2018-06-10T05:02:46.761Z,94.10
2018-06-10T05:05:14.297Z,94.20
2018-06-10T05:07:41.809Z,94.20
2018-06-10T05:10:09.354Z,94.20
2018-06-10T05:12:36.929Z,94.50
2018-06-10T05:15:04.473Z,94.30
2018-06-10T05:17:31.983Z,94.30
2018-06-10T05:19:59.504Z,94.20
2018-06-10T05:22:33.826Z,94.30
2018-06-10T05:25:01.359Z,94.40
2018-06-10T05:27:28.903Z,94.20
2018-06-10T05:29:56.421Z,94.30
2018-06-10T05:32:23.906Z,94.30
2018-06-10T05:34:51.420Z,94.40
2018-06-10T05:37:18.925Z,94.50
2018-06-10T05:39:46.460Z,94.60
2018-06-10T05:42:14.046Z,94.80
2018-06-10T05:44:41.605Z,94.80
2018-06-10T05:47:09.188Z,94.60
2018-06-10T05:49:36.738Z,94.60
2018-06-10T05:52:04.322Z,94.20
2018-06-10T05:56:59.340Z,93.40
2018-06-10T05:59:26.877Z,93.80
2018-06-10T06:01:54.399Z,93.60
2018-06-10T06:04:21.933Z,93.60
2018-06-10T06:06:49.448Z,92.70
2018-06-10T06:09:16.977Z,93.20
2018-06-10T06:11:44.595Z,93.30
2018-06-10T06:14:12.109Z,93.10
2018-06-10T06:16:39.636Z,93.10
2018-06-10T06:19:07.144Z,92.90
2018-06-10T06:21:34.693Z,92.90
2018-06-10T06:24:02.205Z,92.70
2018-06-10T06:26:29.718Z,92.50
2018-06-10T06:28:57.205Z,92.10
2018-06-10T06:31:24.722Z,92.30
2018-06-10T06:33:52.221Z,92.60
2018-06-10T06:36:19.764Z,91.90
2018-06-10T06:38:47.294Z,91.60
2018-06-10T06:41:14.853Z,91.80
2018-06-10T06:43:42.385Z,91.50
2018-06-10T06:46:09.909Z,91.40
2018-06-10T06:48:37.416Z,91.80
2018-06-10T06:51:05.234Z,91.00
2018-06-10T06:53:32.752Z,90.50
2018-06-10T06:56:00.281Z,91.00
2018-06-10T06:58:27.815Z,90.50
2018-06-10T07:00:55.393Z,90.70
2018-06-10T07:03:23.180Z,89.10
2018-06-10T07:05:50.726Z,89.30
2018-06-10T07:08:18.248Z,89.50
2018-06-10T07:10:45.765Z,89.00
2018-06-10T07:13:13.372Z,88.20
2018-06-10T07:15:40.878Z,88.20
2018-06-10T07:18:08.418Z,87.40
2018-06-10T07:20:35.996Z,88.10
2018-06-10T07:23:03.509Z,85.90
2018-06-10T07:25:31.066Z,85.30
2018-06-10T07:27:58.652Z,87.70
2018-06-10T07:30:26.179Z,90.50
2018-06-10T07:32:53.727Z,86.70
2018-06-10T07:35:21.244Z,86.20
2018-06-10T07:37:48.786Z,85.90
2018-06-10T07:40:16.291Z,85.70
2018-06-10T07:42:43.850Z,83.90
2018-06-10T07:45:11.358Z,84.20
2018-06-10T07:47:38.882Z,82.50
2018-06-10T07:50:06.426Z,81.90
2018-06-10T07:52:33.973Z,81.90
2018-06-10T07:55:01.478Z,81.70
2018-06-10T07:57:28.997Z,79.40
2018-06-10T07:59:56.510Z,77.60
2018-06-10T08:02:24.061Z,75.80
2018-06-10T08:04:51.554Z,75.30
2018-06-10T08:07:19.100Z,77.60
2018-06-10T08:09:46.619Z,73.80
2018-06-10T08:14:41.540Z,76.70
2018-06-10T08:17:09.081Z,79.50
2018-06-10T08:19:36.634Z,80.30
2018-06-10T08:22:04.182Z,78.40
2018-06-10T08:24:31.811Z,80.00
2018-06-10T08:26:59.349Z,80.90
2018-06-10T08:29:26.925Z,79.90
2018-06-10T08:31:54.750Z,81.70
2018-06-10T08:34:22.238Z,80.40
2018-06-10T08:36:49.844Z,80.40
2018-06-10T08:39:17.433Z,82.40
2018-06-10T08:41:44.973Z,82.70
2018-06-10T08:44:12.538Z,80.10
2018-06-10T08:46:40.050Z,81.80
2018-06-10T08:49:07.629Z,81.60
2018-06-10T08:51:35.169Z,84.30
2018-06-10T08:54:02.749Z,81.00
2018-06-10T08:56:30.261Z,80.30
2018-06-10T08:58:57.899Z,80.70
2018-06-10T09:01:26.385Z,80.60
2018-06-10T09:03:53.945Z,81.10
2018-06-10T09:06:21.461Z,81.90
2018-06-10T09:08:49.079Z,81.80
2018-06-10T09:11:16.623Z,85.00
2018-06-10T09:13:44.141Z,85.50
2018-06-10T09:16:11.674Z,79.80
2018-06-10T09:18:39.185Z,78.50
2018-06-10T09:21:06.735Z,78.70
2018-06-10T09:28:35.809Z,75.70
2018-06-10T09:31:03.639Z,79.00
2018-06-10T09:33:31.145Z,75.20
2018-06-10T09:35:58.758Z,73.90
2018-06-10T09:38:26.272Z,74.30
2018-06-10T09:40:53.818Z,75.10
2018-06-10T09:43:21.412Z,74.00
2018-06-10T09:45:48.934Z,76.10
2018-06-10T09:48:16.475Z,75.80
2018-06-10T09:50:43.996Z,75.10
2018-06-10T09:53:11.639Z,72.80
2018-06-10T09:55:39.441Z,73.00
2018-06-10T09:58:06.807Z,75.20
2018-06-10T10:00:34.326Z,73.20
2018-06-10T10:03:01.858Z,71.90
2018-06-10T10:05:29.390Z,70.20
2018-06-10T10:07:57.862Z,72.60
2018-06-10T10:10:26.156Z,73.00
2018-06-10T10:12:53.716Z,71.70
2018-06-10T10:15:21.389Z,70.50
2018-06-10T10:17:48.920Z,71.10
2018-06-10T10:20:16.447Z,70.30
2018-06-10T10:25:12.140Z,70.20
2018-06-10T10:27:39.672Z,72.10
2018-06-10T10:30:07.227Z,68.80
2018-06-10T10:32:34.822Z,68.00
2018-06-10T10:35:03.248Z,67.20
2018-06-10T10:37:30.822Z,70.60
2018-06-10T10:39:58.332Z,66.60
2018-06-10T10:42:25.936Z,66.20
2018-06-10T10:44:53.468Z,64.10
2018-06-10T10:49:48.549Z,68.30
2018-06-10T10:52:16.093Z,68.30
2018-06-10T10:54:43.660Z,69.60
2018-06-10T10:57:11.202Z,69.50
2018-06-10T10:59:38.813Z,67.30
2018-06-10T11:02:06.521Z,69.80
2018-06-10T11:04:34.121Z,66.60
2018-06-10T11:07:01.694Z,65.30
2018-06-10T11:09:29.198Z,66.90
2018-06-10T11:11:56.773Z,67.50
2018-06-10T11:14:24.362Z,63.90
2018-06-10T11:16:51.877Z,65.10
2018-06-10T11:19:19.506Z,65.00
2018-06-10T11:21:47.262Z,65.10
2018-06-10T11:24:14.812Z,64.30
2018-06-10T11:26:42.322Z,65.90
2018-06-10T11:29:10.587Z,67.10
2018-06-10T11:31:38.098Z,67.70
2018-06-10T11:34:05.738Z,66.40
2018-06-10T11:39:08.747Z,66.10
2018-06-10T11:41:36.276Z,66.40
2018-06-10T11:44:04.063Z,65.20
2018-06-10T11:46:31.668Z,68.10
2018-06-10T11:48:59.280Z,69.40
2018-06-10T11:51:27.527Z,70.50
2018-06-10T11:53:55.086Z,68.20
2018-06-10T11:56:22.612Z,69.00
2018-06-10T12:03:45.049Z,69.00
2018-06-10T12:06:12.641Z,70.70
2018-06-10T12:08:40.217Z,71.60
2018-06-10T12:11:07.742Z,74.10
2018-06-10T12:13:35.380Z,71.90
2018-06-10T12:16:02.935Z,72.60
2018-06-10T12:18:30.438Z,72.60
2018-06-10T12:20:57.973Z,71.40
2018-06-10T12:23:25.499Z,73.30
2018-06-10T12:25:53.035Z,73.00
2018-06-10T12:28:20.543Z,72.90
2018-06-10T12:30:48.082Z,72.60
2018-06-10T12:33:15.613Z,72.00
2018-06-10T12:35:43.168Z,71.40
2018-06-10T12:38:10.728Z,73.00
2018-06-10T12:40:38.257Z,72.80
2018-06-10T12:43:05.806Z,75.50
2018-06-10T12:45:33.349Z,75.80
2018-06-10T12:48:00.862Z,74.10
2018-06-10T12:50:28.398Z,76.00
2018-06-10T12:52:55.957Z,73.40
2018-06-10T12:55:23.496Z,73.80
2018-06-10T12:57:51.045Z,75.10
2018-06-10T13:00:18.661Z,76.60
2018-06-10T13:02:46.215Z,75.20
2018-06-10T13:05:13.782Z,76.60
2018-06-10T13:07:41.296Z,75.70
2018-06-10T13:10:08.796Z,76.30
2018-06-10T13:12:36.320Z,78.10
2018-06-10T13:15:03.897Z,78.10
2018-06-10T13:17:31.496Z,78.70
2018-06-10T13:19:59.029Z,77.00
2018-06-10T13:22:26.548Z,75.80
2018-06-10T13:24:54.114Z,76.90
2018-06-10T13:29:49.101Z,75.10
2018-06-10T13:32:16.624Z,72.90
2018-06-10T13:34:44.120Z,73.60
2018-06-10T13:37:11.637Z,74.00
2018-06-10T13:39:39.172Z,73.70
2018-06-10T13:42:06.751Z,74.40
2018-06-10T13:44:34.276Z,75.20
2018-06-10T13:47:01.815Z,76.00
2018-06-10T13:49:29.398Z,75.80
2018-06-10T13:51:57.020Z,77.70
2018-06-10T13:54:24.564Z,72.80
2018-06-10T13:56:52.154Z,73.00
2018-06-10T13:59:19.705Z,72.70
2018-06-10T14:04:14.835Z,72.40
2018-06-10T14:06:42.406Z,72.70
2018-06-10T14:09:09.901Z,72.00
2018-06-10T14:11:37.396Z,71.30
2018-06-10T14:14:05.023Z,73.40
2018-06-10T14:16:32.552Z,72.20
2018-06-10T14:21:27.563Z,71.80
2018-06-10T14:23:55.118Z,71.50
2018-06-10T14:26:23.224Z,71.00
2018-06-10T14:28:50.761Z,70.10
2018-06-10T14:31:18.293Z,70.10
2018-06-10T14:33:45.878Z,69.00
2018-06-10T14:36:13.429Z,71.90
2018-06-10T14:38:41.000Z,68.50
2018-06-10T14:41:08.547Z,68.10
2018-06-10T14:43:36.125Z,70.10
2018-06-10T14:46:03.874Z,68.10
2018-06-10T14:48:31.449Z,68.10
2018-06-10T14:50:58.987Z,66.10
2018-06-10T14:53:26.579Z,64.20
2018-06-10T14:55:54.173Z,66.80
2018-06-10T14:58:21.861Z,67.80
2018-06-10T15:00:49.663Z,61.70
2018-06-10T15:03:17.205Z,63.00
2018-06-10T15:05:46.005Z,65.60
2018-06-10T15:08:13.551Z,65.20
2018-06-10T15:10:41.141Z,64.30
2018-06-10T15:13:08.697Z,64.80
2018-06-10T15:15:36.299Z,66.20
2018-06-10T15:18:03.955Z,63.60
2018-06-10T15:20:31.516Z,63.80
2018-06-10T15:22:59.041Z,63.50
2018-06-10T15:25:27.859Z,61.10
2018-06-10T15:27:55.377Z,58.50
2018-06-10T15:30:22.997Z,59.40
2018-06-10T15:32:50.525Z,59.80
2018-06-10T15:35:18.115Z,57.30
2018-06-10T15:37:45.660Z,54.70
2018-06-10T15:40:13.232Z,53.50
2018-06-10T15:42:47.815Z,55.50
2018-06-10T15:45:15.410Z,55.60
2018-06-10T15:50:10.495Z,56.70
2018-06-10T15:52:38.083Z,55.70
2018-06-10T15:55:05.658Z,54.60
2018-06-10T15:57:33.228Z,54.90
2018-06-10T16:00:00.729Z,55.70
2018-06-10T16:02:28.285Z,56.60
2018-06-10T16:04:55.803Z,57.00
2018-06-10T16:07:23.352Z,59.10
2018-06-10T16:09:50.881Z,57.60
2018-06-10T16:12:18.422Z,58.30
2018-06-10T16:14:45.994Z,56.60
2018-06-10T16:17:13.585Z,54.70
2018-06-10T16:19:41.220Z,53.10
2018-06-10T16:22:08.778Z,54.10
2018-06-10T16:24:36.337Z,55.00
2018-06-10T16:27:04.773Z,54.70
2018-06-10T16:29:33.124Z,54.30
2018-06-10T16:34:29.446Z,53.60
2018-06-10T16:36:58.446Z,53.70
2018-06-10T16:39:25.957Z,52.50
2018-06-10T16:41:53.533Z,50.40
2018-06-10T16:44:21.100Z,49.70
2018-06-10T16:46:48.631Z,50.40
2018-06-10T16:49:16.197Z,50.10
2018-06-10T16:51:43.726Z,50.40
2018-06-10T16:54:11.394Z,51.00
2018-06-10T16:56:38.961Z,52.20
2018-06-10T16:59:06.510Z,53.00
2018-06-10T17:01:34.062Z,52.20
2018-06-10T17:04:02.155Z,52.20
2018-06-10T17:06:29.690Z,50.50
2018-06-10T17:08:57.204Z,48.90
2018-06-10T17:11:25.190Z,48.00
2018-06-10T17:13:52.720Z,46.60
2018-06-10T17:16:20.328Z,46.50
2018-06-10T17:18:47.929Z,47.00
2018-06-10T17:21:15.589Z,47.70
